Time,TemperatureF,DewpointF,PressureIn,WindDirection,WindDirectionDegrees,WindSpeedMPH,WindSpeedGustMPH,Humidity,HourlyPrecipIn,Conditions,Clouds,dailyrainin,SolarRadiationWatts/m^2,SoftwareType,DateUTC
2013-02-21 00:01:00,57.0,51.0,-100.00,SSE,160,5.0,8.0,80,0.00,,,0.00,0.000000,,2013-02-21 10:01:00,
2013-02-21 00:11:00,57.0,51.0,-100.00,SSE,160,5.0,8.0,80,0.00,,,0.00,0.000000,,2013-02-21 10:11:00,
2013-02-21 00:21:00,57.0,51.0,-100.00,SSE,160,5.0,8.0,80,0.00,,,0.00,0.000000,,2013-02-21 10:21:00,
2013-02-21 00:31:00,57.0,51.0,-100.00,SSE,160,5.0,8.0,80,0.00,,,0.00,0.000000,,2013-02-21 10:31:00,
2013-02-21 00:51:00,57.0,50.0,-100.00,SE,136,4.0,9.0,78,0.00,,,0.00,0.000000,,2013-02-21 10:51:00,
2013-02-21 01:01:00,57.0,50.0,-100.00,SE,136,4.0,9.0,78,0.00,,,0.00,0.000000,,2013-02-21 11:01:00,
2013-02-21 01:11:00,57.0,50.0,-100.00,SE,136,4.0,9.0,78,0.00,,,0.00,0.000000,,2013-02-21 11:11:00,
2013-02-21 01:21:00,57.0,50.0,-100.00,SE,136,4.0,9.0,78,0.00,,,0.00,0.000000,,2013-02-21 11:21:00,
2013-02-21 01:31:00,57.0,50.0,-100.00,SE,136,4.0,9.0,78,0.00,,,0.00,0.000000,,2013-02-21 11:31:00,
2013-02-21 02:01:00,55.0,47.0,-100.00,SE,125,4.0,6.0,75,0.00,,,0.00,0.000000,,2013-02-21 12:01:00,
2013-02-21 02:11:00,55.0,47.0,-100.00,SE,125,4.0,6.0,75,0.00,,,0.00,0.000000,,2013-02-21 12:11:00,
2013-02-21 02:21:00,55.0,47.0,-100.00,SE,125,4.0,6.0,75,0.00,,,0.00,0.000000,,2013-02-21 12:21:00,
2013-02-21 02:32:00,55.0,47.0,-100.00,SE,125,4.0,6.0,75,0.00,,,0.00,0.000000,,2013-02-21 12:32:00,
2013-02-21 03:01:00,57.0,45.0,-100.00,SE,130,4.0,7.0,65,0.00,,,0.00,0.000000,,2013-02-21 13:01:00,
2013-02-21 03:12:00,57.0,45.0,-100.00,SE,130,4.0,7.0,65,0.00,,,0.00,0.000000,,2013-02-21 13:12:00,
2013-02-21 03:22:00,57.0,45.0,-100.00,SE,130,4.0,7.0,65,0.00,,,0.00,0.000000,,2013-02-21 13:22:00,
2013-02-21 03:31:00,57.0,45.0,-100.00,SE,130,4.0,7.0,65,0.00,,,0.00,0.000000,,2013-02-21 13:31:00,
2013-02-21 04:02:00,55.0,46.0,-100.00,SE,133,5.0,8.0,71,0.00,,,0.00,0.000000,,2013-02-21 14:02:00,
2013-02-21 04:11:00,55.0,46.0,-100.00,SE,133,5.0,8.0,71,0.00,,,0.00,0.000000,,2013-02-21 14:11:00,
2013-02-21 04:21:00,55.0,46.0,-100.00,SE,133,5.0,8.0,71,0.00,,,0.00,0.000000,,2013-02-21 14:21:00,
2013-02-21 04:31:00,55.0,46.0,-100.00,SE,133,5.0,8.0,71,0.00,,,0.00,0.000000,,2013-02-21 14:31:00,
2013-02-21 05:01:00,55.0,47.0,-100.00,SE,145,4.0,7.0,75,0.00,,,0.00,0.000000,,2013-02-21 15:01:00,
2013-02-21 05:12:00,55.0,47.0,-100.00,SE,145,4.0,7.0,75,0.00,,,0.00,0.000000,,2013-02-21 15:12:00,
2013-02-21 05:21:00,55.0,47.0,-100.00,SE,145,4.0,7.0,75,0.00,,,0.00,0.000000,,2013-02-21 15:21:00,
2013-02-21 05:31:00,55.0,47.0,-100.00,SE,145,4.0,7.0,75,0.00,,,0.00,0.000000,,2013-02-21 15:31:00,
2013-02-21 06:01:00,55.0,46.0,-100.00,SSE,147,5.0,8.0,72,0.00,,,0.00,0.000000,,2013-02-21 16:01:00,
2013-02-21 06:12:00,55.0,46.0,-100.00,SSE,147,5.0,8.0,72,0.00,,,0.00,0.000000,,2013-02-21 16:12:00,
2013-02-21 06:21:00,55.0,46.0,-100.00,SSE,147,5.0,8.0,72,0.00,,,0.00,0.000000,,2013-02-21 16:21:00,
2013-02-21 06:31:00,55.0,46.0,-100.00,SSE,147,5.0,8.0,72,0.00,,,0.00,0.000000,,2013-02-21 16:31:00,
2013-02-21 06:52:00,55.0,46.0,-100.00,SSE,147,4.0,8.0,72,0.00,,,0.00,0.000000,,2013-02-21 16:52:00,
2013-02-21 07:01:00,55.0,46.0,-100.00,SSE,147,4.0,8.0,72,0.00,,,0.00,0.000000,,2013-02-21 17:01:00,
2013-02-21 07:11:00,55.0,46.0,-100.00,SSE,147,4.0,8.0,72,0.00,,,0.00,0.000000,,2013-02-21 17:11:00,
2013-02-21 07:21:00,55.0,46.0,-100.00,SSE,147,4.0,8.0,72,0.00,,,0.00,0.000000,,2013-02-21 17:21:00,
2013-02-21 07:32:00,55.0,46.0,-100.00,SSE,147,4.0,8.0,72,0.00,,,0.00,0.000000,,2013-02-21 17:32:00,
2013-02-21 08:01:00,58.0,45.0,-100.00,SSE,162,5.0,9.0,63,0.00,,,0.00,37.000000,,2013-02-21 18:01:00,
2013-02-21 08:11:00,58.0,45.0,-100.00,SSE,162,5.0,9.0,63,0.00,,,0.00,37.000000,,2013-02-21 18:11:00,
2013-02-21 08:22:00,58.0,45.0,-100.00,SSE,162,5.0,9.0,63,0.00,,,0.00,37.000000,,2013-02-21 18:22:00,
2013-02-21 08:31:00,58.0,45.0,-100.00,SSE,162,5.0,9.0,63,0.00,,,0.00,37.000000,,2013-02-21 18:31:00,
2013-02-21 09:01:00,72.0,55.0,-100.00,WNW,285,3.0,6.0,55,0.00,,,0.00,316.000000,,2013-02-21 19:01:00,
2013-02-21 09:11:00,72.0,55.0,-100.00,WNW,285,3.0,6.0,55,0.00,,,0.00,316.000000,,2013-02-21 19:11:00,
2013-02-21 09:21:00,72.0,55.0,-100.00,WNW,285,3.0,6.0,55,0.00,,,0.00,316.000000,,2013-02-21 19:21:00,
2013-02-21 09:31:00,72.0,55.0,-100.00,WNW,285,3.0,6.0,55,0.00,,,0.00,316.000000,,2013-02-21 19:31:00,
2013-02-21 09:52:00,71.0,54.0,-100.00,NNW,337,5.0,9.0,55,0.00,,,0.00,627.000000,,2013-02-21 19:52:00,
2013-02-21 10:01:00,71.0,54.0,-100.00,NNW,337,5.0,9.0,55,0.00,,,0.00,627.000000,,2013-02-21 20:01:00,
2013-02-21 10:11:00,71.0,54.0,-100.00,NNW,337,5.0,9.0,55,0.00,,,0.00,627.000000,,2013-02-21 20:11:00,
2013-02-21 10:21:00,71.0,54.0,-100.00,NNW,337,5.0,9.0,55,0.00,,,0.00,627.000000,,2013-02-21 20:21:00,
2013-02-21 10:31:00,71.0,54.0,-100.00,NNW,337,5.0,9.0,55,0.00,,,0.00,627.000000,,2013-02-21 20:31:00,
2013-02-21 11:02:00,75.0,54.0,-100.00,WSW,244,5.0,10.0,48,0.00,,,0.00,883.000000,,2013-02-21 21:02:00,
2013-02-21 11:11:00,75.0,54.0,-100.00,WSW,244,5.0,10.0,48,0.00,,,0.00,883.000000,,2013-02-21 21:11:00,
2013-02-21 11:21:00,75.0,54.0,-100.00,WSW,244,5.0,10.0,48,0.00,,,0.00,883.000000,,2013-02-21 21:21:00,
2013-02-21 11:31:00,75.0,54.0,-100.00,WSW,244,5.0,10.0,48,0.00,,,0.00,883.000000,,2013-02-21 21:31:00,
2013-02-21 12:01:00,77.0,57.0,-100.00,NW,307,6.0,14.0,50,0.00,,,0.00,1065.000000,,2013-02-21 22:01:00,
2013-02-21 12:11:00,77.0,57.0,-100.00,NW,307,6.0,14.0,50,0.00,,,0.00,1065.000000,,2013-02-21 22:11:00,
2013-02-21 12:21:00,77.0,57.0,-100.00,NW,307,6.0,14.0,50,0.00,,,0.00,1065.000000,,2013-02-21 22:21:00,
2013-02-21 12:31:00,77.0,57.0,-100.00,NW,307,6.0,14.0,50,0.00,,,0.00,1065.000000,,2013-02-21 22:31:00,
2013-02-21 13:01:00,73.0,60.0,-100.00,NW,308,8.0,18.0,64,0.00,,,0.00,676.000000,,2013-02-21 23:01:00,
2013-02-21 13:11:00,73.0,60.0,-100.00,NW,308,8.0,18.0,64,0.00,,,0.00,676.000000,,2013-02-21 23:11:00,
2013-02-21 13:21:00,73.0,60.0,-100.00,NW,308,8.0,18.0,64,0.00,,,0.00,676.000000,,2013-02-21 23:21:00,
2013-02-21 13:31:00,73.0,60.0,-100.00,NW,308,8.0,18.0,64,0.00,,,0.00,676.000000,,2013-02-21 23:31:00,
2013-02-21 13:52:00,71.0,60.0,-100.00,NNW,329,8.0,18.0,69,0.00,,,0.00,421.000000,,2013-02-21 23:52:00,
2013-02-21 14:01:00,71.0,60.0,-100.00,NNW,329,8.0,18.0,69,0.00,,,0.00,421.000000,,2013-02-22 00:01:00,
2013-02-21 14:11:00,71.0,60.0,-100.00,NNW,329,8.0,18.0,69,0.00,,,0.00,421.000000,,2013-02-22 00:11:00,
2013-02-21 14:21:00,71.0,60.0,-100.00,NNW,329,8.0,18.0,69,0.00,,,0.00,421.000000,,2013-02-22 00:21:00,
2013-02-21 14:31:00,71.0,60.0,-100.00,NNW,329,8.0,18.0,69,0.00,,,0.00,421.000000,,2013-02-22 00:31:00,
2013-02-21 15:01:00,72.0,62.0,-100.00,NW,324,7.0,15.0,70,0.00,,,0.00,419.000000,,2013-02-22 01:01:00,
2013-02-21 15:11:00,72.0,62.0,-100.00,NW,324,7.0,15.0,70,0.00,,,0.00,419.000000,,2013-02-22 01:11:00,
2013-02-21 15:21:00,72.0,62.0,-100.00,NW,324,7.0,15.0,70,0.00,,,0.00,419.000000,,2013-02-22 01:21:00,
2013-02-21 15:32:00,72.0,62.0,-100.00,NW,324,7.0,15.0,70,0.00,,,0.00,419.000000,,2013-02-22 01:32:00,
2013-02-21 16:02:00,68.0,62.0,-100.00,ENE,75,5.0,18.0,82,0.00,,,0.00,124.000000,,2013-02-22 02:02:00,
2013-02-21 16:11:00,68.0,62.0,-100.00,ENE,75,5.0,18.0,82,0.00,,,0.00,124.000000,,2013-02-22 02:11:00,
2013-02-21 16:21:00,68.0,62.0,-100.00,ENE,75,5.0,18.0,82,0.00,,,0.00,124.000000,,2013-02-22 02:21:00,
2013-02-21 16:31:00,68.0,62.0,-100.00,ENE,75,5.0,18.0,82,0.00,,,0.00,124.000000,,2013-02-22 02:31:00,
2013-02-21 17:01:00,67.0,60.0,-100.00,NNW,331,5.0,20.0,79,0.00,,,0.00,189.000000,,2013-02-22 03:01:00,
2013-02-21 17:11:00,67.0,60.0,-100.00,NNW,331,5.0,20.0,79,0.00,,,0.00,189.000000,,2013-02-22 03:11:00,
2013-02-21 17:21:00,67.0,60.0,-100.00,NNW,331,5.0,20.0,79,0.00,,,0.00,189.000000,,2013-02-22 03:21:00,
2013-02-21 17:31:00,67.0,60.0,-100.00,NNW,331,5.0,20.0,79,0.00,,,0.00,189.000000,,2013-02-22 03:31:00,
2013-02-21 18:01:00,68.0,59.0,-100.00,NE,35,6.0,17.0,74,0.00,,,0.00,134.000000,,2013-02-22 04:01:00,
2013-02-21 18:11:00,68.0,59.0,-100.00,NE,35,6.0,17.0,74,0.00,,,0.00,134.000000,,2013-02-22 04:11:00,
2013-02-21 18:21:00,68.0,59.0,-100.00,NE,35,6.0,17.0,74,0.00,,,0.00,134.000000,,2013-02-22 04:21:00,
2013-02-21 18:31:00,68.0,59.0,-100.00,NE,35,6.0,17.0,74,0.00,,,0.00,134.000000,,2013-02-22 04:31:00,
2013-02-21 19:01:00,66.0,59.0,-100.00,SE,136,3.0,7.0,78,0.00,,,0.00,21.000000,,2013-02-22 05:01:00,
2013-02-21 19:11:00,66.0,59.0,-100.00,SE,136,3.0,7.0,78,0.00,,,0.00,21.000000,,2013-02-22 05:11:00,
2013-02-21 19:22:00,66.0,59.0,-100.00,SE,136,3.0,7.0,78,0.00,,,0.00,21.000000,,2013-02-22 05:22:00,
2013-02-21 19:32:00,66.0,59.0,-100.00,SE,136,3.0,7.0,78,0.00,,,0.00,21.000000,,2013-02-22 05:32:00,
2013-02-21 20:01:00,65.0,59.0,-100.00,SSE,164,4.0,7.0,82,0.00,,,0.00,0.000000,,2013-02-22 06:01:00,
2013-02-21 20:11:00,65.0,59.0,-100.00,SSE,164,4.0,7.0,82,0.00,,,0.00,0.000000,,2013-02-22 06:11:00,
2013-02-21 20:21:00,65.0,59.0,-100.00,SSE,164,4.0,7.0,82,0.00,,,0.00,0.000000,,2013-02-22 06:21:00,
2013-02-21 20:31:00,65.0,59.0,-100.00,SSE,164,4.0,7.0,82,0.00,,,0.00,0.000000,,2013-02-22 06:31:00,
2013-02-21 21:01:00,65.0,58.0,-100.00,East,99,2.0,7.0,79,0.00,,,0.00,0.000000,,2013-02-22 07:01:00,
2013-02-21 21:11:00,65.0,58.0,-100.00,East,99,2.0,7.0,79,0.00,,,0.00,0.000000,,2013-02-22 07:11:00,
2013-02-21 21:21:00,65.0,58.0,-100.00,East,99,2.0,7.0,79,0.00,,,0.00,0.000000,,2013-02-22 07:21:00,
2013-02-21 21:31:00,65.0,58.0,-100.00,East,99,2.0,7.0,79,0.00,,,0.00,0.000000,,2013-02-22 07:31:00,
2013-02-21 21:52:00,67.0,53.0,-100.00,ESE,122,6.0,12.0,61,0.00,,,0.00,0.000000,,2013-02-22 07:52:00,
2013-02-21 22:01:00,67.0,53.0,-100.00,ESE,122,6.0,12.0,61,0.00,,,0.00,0.000000,,2013-02-22 08:01:00,
2013-02-21 22:11:00,67.0,53.0,-100.00,ESE,122,6.0,12.0,61,0.00,,,0.00,0.000000,,2013-02-22 08:11:00,
2013-02-21 22:21:00,67.0,53.0,-100.00,ESE,122,6.0,12.0,61,0.00,,,0.00,0.000000,,2013-02-22 08:21:00,
2013-02-21 22:31:00,67.0,53.0,-100.00,ESE,122,6.0,12.0,61,0.00,,,0.00,0.000000,,2013-02-22 08:31:00,
2013-02-21 23:03:00,64.0,57.0,-100.00,WSW,240,2.0,18.0,77,0.00,,,0.00,0.000000,,2013-02-22 09:03:00,
2013-02-21 23:11:00,64.0,57.0,-100.00,WSW,240,2.0,18.0,77,0.00,,,0.00,0.000000,,2013-02-22 09:11:00,
2013-02-21 23:21:00,64.0,57.0,-100.00,WSW,240,2.0,18.0,77,0.00,,,0.00,0.000000,,2013-02-22 09:21:00,
2013-02-21 23:31:00,64.0,57.0,-100.00,WSW,240,2.0,18.0,77,0.00,,,0.00,0.000000,,2013-02-22 09:31:00,